KAVK

Alva Regional Airport

Alva, Oklahoma, USA
METAR KAVK 191655Z AUTO 27010G17KT 10SM FEW017 BKN025 BKN032 24/21 A2989 RMK AO2
Observed Flight Rules
Aug-19 @ 16:55 UTC (19 minutes ago) Marginal Visual Flight Rules
Wind Visibility Clouds
270° at 10 knots
 Gusting to 17 knots
10 miles
  • Few at 1,700' AGL
  • Broken at 2,500' AGL
  • Broken at 3,200' AGL
Temperatures Readings
Current 24°C / 75°F
Dewpoint 21°C / 70°F
Humidity 83%
Altimeter 29.89" Hg
Pressure 1012 hPa
Elevation 449
METAR KAVK 191655Z AUTO 27010G17KT 10SM FEW017 BKN025 BKN032 24/21 A2989 RMK AO2
Observed Flight Rules
Aug-19 @ 16:55 UTC
(19 minutes ago)
MVFR
Wind Visibility
270° at 10 knots
 Gusting to 17 knots
10 miles
Clouds
  • Few at 1,700' AGL
  • Broken at 2,500' AGL
  • Broken at 3,200' AGL
Temperature Dewpoint
24°C / 75°F 21°C / 70°F
Humidity Altimeter Pressure
83% 29.89" Hg 1012 hPa